Flight Track Log - Related Links

Times and Time Zones

All times are in EDT time to prevent confusion due to time zone crossing. See the AMF1964 flight status page for this flight to view local times or setup timezone preferences in your user account.

Time Position Orientation Groundspeed Altitude Reporting Facility
EDT Latitude Longitude Course Direction KTS MPH feet Rate Location/Type
Wed 09:44:39 AM 45.5906 -122.6142 North 118 136 800  Level Seattle Center
Wed 09:45:27 AM 45.6156 -122.6083 48° Northeast 132 152 1,800 1,148 Climbing Seattle Center
Wed 09:46:34 AM 45.6442 -122.5628 80° East 152 175 3,000 1,075 Climbing Seattle Center
Wed 09:47:41 AM 45.6522 -122.4958 80° East 157 181 4,200 1,031 Climbing Seattle Center
Wed 09:48:42 AM 45.6597 -122.4358 84° East 158 182 5,200 984 Climbing Seattle Center
Wed 09:49:43 AM 45.6650 -122.3669 80° East 170 196 6,200 992 Climbing Seattle Center
Wed 09:50:43 AM 45.6736 -122.2936 83° East 174 200 7,200 867 Climbing Seattle Center
Wed 09:51:13 AM 45.6758 -122.2683 80° East 171 197 7,500 857 Climbing Seattle Center
Wed 09:52:14 AM 45.6850 -122.1964 82° East 180 207 8,500 927 Climbing Seattle Center
Wed 09:53:16 AM 45.6925 -122.1239 84° East 184 212 9,400 488 Climbing Seattle Center
Wed 09:54:17 AM 45.6986 -122.0461 80° East 191 220 9,500 49 Climbing Seattle Center
Wed 09:55:18 AM 45.7114 -121.9433 81° East 214 246 9,500  Level Seattle Center
Wed 09:56:19 AM 45.7200 -121.8628 80° East 213 245 9,500  Level Seattle Center
Wed 09:57:20 AM 45.7306 -121.7789 80° East 215 247 9,500 49 Level Seattle Center
Wed 09:58:21 AM 45.7411 -121.6964 81° East 213 245 9,600 49 Climbing Seattle Center
Wed 09:59:22 AM 45.7508 -121.6125 81° East 213 245 9,600 -49 Level Seattle Center
Wed 10:00:23 AM 45.7603 -121.5278 82° East 215 247 9,500 -49 Descending Seattle Center
Wed 10:01:24 AM 45.7686 -121.4433 81° East 216 249 9,500  Level Seattle Center
Wed 10:02:25 AM 45.7797 -121.3406 84° East 217 250 9,500  Level Seattle Center
Wed 10:03:26 AM 45.7861 -121.2553 82° East 217 250 9,500  Level Seattle Center
Wed 10:04:27 AM 45.7939 -121.1714 82° East 215 247 9,500  Level Seattle Center
Wed 10:05:28 AM 45.8019 -121.0881 83° East 214 246 9,500  Level Seattle Center
Wed 10:06:29 AM 45.8089 -121.0025 83° East 215 247 9,500  Level Seattle Center
Wed 10:07:30 AM 45.8167 -120.9156 81° East 218 251 9,500  Level Seattle Center
Wed 10:08:32 AM 45.8258 -120.8311 82° East 217 250 9,500  Level Seattle Center
Wed 10:09:33 AM 45.8339 -120.7458 82° East 217 250 9,500  Level Seattle Center
Wed 10:10:34 AM 45.8422 -120.6614 81° East 216 249 9,500  Level Seattle Center
Wed 10:11:35 AM 45.8531 -120.5600 82° East 216 249 9,500  Level Seattle Center
Wed 10:12:36 AM 45.8614 -120.4769 81° East 214 246 9,500  Level Seattle Center
Wed 10:13:37 AM 45.8706 -120.3919 82° East 214 246 9,500 -49 Level Seattle Center
Wed 10:14:38 AM 45.8792 -120.3064 85° East 216 249 9,400 -295 Descending Seattle Center
Wed 10:15:39 AM 45.8850 -120.2158 84° East 223 257 8,900 -541 Descending Seattle Center
Wed 10:16:40 AM 45.8917 -120.1264 82° East 225 259 8,300 -689 Descending Seattle Center
Wed 10:17:41 AM 45.9006 -120.0336 83° East 230 265 7,500 -639 Descending Seattle Center
Wed 10:18:42 AM 45.9083 -119.9419 83° East 232 267 7,000 -488 Descending Seattle Center
Wed 10:19:44 AM 45.9158 -119.8569 83° East 225 259 6,500 -484 Descending Seattle Center

Login

Don't have an account? Register now (free) for customized features, flight alerts, and more!